Time;durP1;ratioP1;P1;durP2;ratioP2;P2;SDS_P1;SDS_P2;PMS_P1;PMS_P2;Temp;Humidity;BMP_temperature;BMP_pressure;BME280_temperature;BME280_humidity;BME280_pressure;Samples;Min_cycle;Max_cycle;Signal;HPM_P1;HPM_P2
2023/01/12 00:02:23;;;;;;;18.00;11.40;;;;;;;0.97;97.14;97635.89;110721;1245;59620;-66
2023/01/12 00:04:52;;;;;;;22.80;14.20;;;;;;;0.96;97.43;97647.08;110802;1240;71356;-66
2023/01/12 00:07:20;;;;;;;17.00;11.40;;;;;;;0.95;97.43;97644.35;110817;1238;69845;-66
2023/01/12 00:09:49;;;;;;;18.40;12.70;;;;;;;0.96;97.52;97647.41;110746;1241;68590;-66
2023/01/12 00:12:18;;;;;;;18.80;12.50;;;;;;;0.97;98.02;97654.59;110706;1240;59692;-66
2023/01/12 00:14:47;;;;;;;22.40;13.50;;;;;;;0.98;98.13;97658.87;110742;1239;59647;-66
2023/01/12 00:17:17;;;;;;;24.10;15.80;;;;;;;0.97;97.30;97658.73;110756;1240;71379;-65
2023/01/12 00:19:47;;;;;;;22.30;14.30;;;;;;;0.93;97.54;97660.20;110805;1245;69555;-65
2023/01/12 00:22:18;;;;;;;24.00;15.20;;;;;;;0.90;98.66;97665.81;110799;1240;68361;-66
2023/01/12 00:24:48;;;;;;;21.70;13.80;;;;;;;0.90;98.98;97662.36;110805;1245;59660;-66
2023/01/12 00:27:19;;;;;;;22.30;14.10;;;;;;;0.90;97.84;97662.20;110813;1238;59733;-66
2023/01/12 00:29:49;;;;;;;20.90;14.20;;;;;;;0.90;97.01;97654.31;110430;1242;71974;-65
2023/01/12 00:32:20;;;;;;;16.70;13.10;;;;;;;0.88;97.09;97657.79;110797;1239;69793;-66
2023/01/12 00:34:49;;;;;;;24.20;13.90;;;;;;;0.90;96.97;97660.81;110761;1239;69626;-66
2023/01/12 00:37:18;;;;;;;19.90;12.70;;;;;;;0.94;95.79;97661.05;110677;1245;59686;-66
2023/01/12 00:39:47;;;;;;;19.80;13.40;;;;;;;0.98;95.73;97653.52;110714;1238;59772;-66
2023/01/12 00:45:20;;;;;;;25.00;15.80;;;;;;;1.08;96.07;97647.39;110844;1238;69746;-66
2023/01/12 00:47:52;;;;;;;21.60;14.30;;;;;;;1.07;97.10;97648.27;110786;1238;70042;-66
2023/01/12 00:50:22;;;;;;;22.60;14.70;;;;;;;1.02;97.05;97646.90;110820;1239;59724;-66
2023/01/12 00:52:52;;;;;;;21.40;14.70;;;;;;;1.00;97.37;97648.34;110767;1239;59642;-66
2023/01/12 00:55:22;;;;;;;22.30;14.20;;;;;;;1.00;97.25;97652.27;110792;1240;71956;-66
2023/01/12 00:57:52;;;;;;;17.60;11.60;;;;;;;1.00;97.11;97654.16;110843;1239;69709;-66
2023/01/12 01:00:22;;;;;;;21.40;14.20;;;;;;;1.00;97.68;97647.79;110801;1238;69821;-66
2023/01/12 01:02:51;;;;;;;21.30;15.60;;;;;;;0.99;98.27;97645.96;110712;1238;59692;-66
2023/01/12 01:05:21;;;;;;;;;;;;;;;0.96;98.67;97645.00;110790;1239;59617;-67
2023/01/12 01:07:51;;;;;;;24.30;15.90;;;;;;;0.95;99.13;97644.34;110705;1238;69831;-66
2023/01/12 01:10:21;;;;;;;22.90;15.20;;;;;;;0.95;99.27;97647.61;110813;1239;69836;-66
2023/01/12 01:12:50;;;;;;;26.00;15.80;;;;;;;0.97;99.39;97647.06;110808;1239;70406;-66
2023/01/12 01:15:19;;;;;;;27.00;17.20;;;;;;;0.97;99.59;97645.67;110816;1241;59737;-67
2023/01/12 01:17:48;;;;;;;28.00;18.60;;;;;;;0.96;99.59;97643.29;110803;1239;59669;-66
2023/01/12 01:20:18;;;;;;;30.00;17.40;;;;;;;0.96;100.00;97639.71;110835;1238;70533;-66
2023/01/12 01:22:48;;;;;;;24.30;16.90;;;;;;;0.96;100.00;97639.17;110832;1240;69257;-66
2023/01/12 01:25:18;;;;;;;23.60;15.90;;;;;;;0.96;100.00;97637.80;110777;1240;69274;-66
2023/01/12 01:27:48;;;;;;;24.70;14.90;;;;;;;0.97;100.00;97639.50;110809;1238;60094;-66
2023/01/12 01:30:18;;;;;;;23.70;15.90;;;;;;;0.98;99.94;97641.35;110674;1238;59695;-66
2023/01/12 01:32:47;;;;;;;24.30;16.30;;;;;;;0.99;100.00;97638.76;110730;1239;69894;-66
2023/01/12 01:35:17;;;;;;;24.50;16.30;;;;;;;1.00;100.00;97637.88;110778;1238;70230;-66
2023/01/12 01:37:46;;;;;;;24.60;14.90;;;;;;;1.02;100.00;97636.77;110782;1239;69067;-66
2023/01/12 01:40:16;;;;;;;;;;;;;;;1.06;100.00;97637.84;110790;1237;60201;-66
2023/01/12 01:42:48;;;;;;;21.90;15.10;;;;;;;1.09;100.00;97640.52;110788;1238;59727;-66
2023/01/12 01:45:18;;;;;;;22.50;14.70;;;;;;;1.11;100.00;97641.12;110640;1237;71371;-66
2023/01/12 01:48:01;;;;;;;22.50;15.20;;;;;;;1.15;100.00;97641.00;110752;1237;69075;-66
2023/01/12 01:50:37;;;;;;;23.10;14.80;;;;;;;1.18;100.00;97647.77;110791;1238;69275;-66
2023/01/12 01:53:13;;;;;;;23.10;15.30;;;;;;;1.20;100.00;97650.63;110747;1238;59957;-66
2023/01/12 01:55:49;;;;;;;21.20;15.20;;;;;;;1.23;100.00;97654.64;110818;1238;59633;-66
2023/01/12 01:58:27;;;;;;;23.30;15.00;;;;;;;1.26;100.00;97656.77;110694;1244;72030;-66
2023/01/12 02:00:58;;;;;;;18.80;12.40;;;;;;;1.30;100.00;97663.70;110820;1238;67363;-66
2023/01/12 02:03:29;;;;;;;21.40;14.60;;;;;;;1.35;100.00;97668.38;110754;1238;69893;-66
2023/01/12 02:06:07;;;;;;;18.70;14.10;;;;;;;1.37;100.00;97670.86;110799;1239;59696;-66
2023/01/12 02:08:51;;;;;;;32.70;20.80;;;;;;;1.39;99.46;97676.29;110741;1238;59621;-66
2023/01/12 02:17:24;;;;;;;29.20;19.40;;;;;;;1.37;100.00;97677.55;110798;1238;69775;-66
2023/01/12 02:20:08;;;;;;;21.60;15.00;;;;;;;1.36;100.00;97676.21;110740;1241;59684;-66
2023/01/12 02:22:50;;;;;;;23.90;15.30;;;;;;;1.34;100.00;97674.58;110776;1238;59674;-65
2023/01/12 02:25:45;;;;;;;23.40;15.60;;;;;;;1.35;100.00;97676.09;110849;1238;71227;-65
2023/01/12 02:28:27;;;;;;;22.90;16.40;;;;;;;1.39;100.00;97674.91;110589;1243;68448;-65
2023/01/12 02:31:39;;;;;;;33.00;22.70;;;;;;;1.42;100.00;97671.55;110790;1238;68526;-65
2023/01/12 02:34:25;;;;;;;37.30;22.30;;;;;;;1.40;98.85;97667.34;110609;1238;59777;-66
2023/01/12 02:37:03;;;;;;;36.50;24.40;;;;;;;1.32;99.40;97659.70;110786;1238;59676;-66
2023/01/12 02:39:51;;;;;;;27.40;19.30;;;;;;;1.26;98.92;97656.27;110810;1239;71638;-66
2023/01/12 02:42:48;;;;;;;27.50;19.30;;;;;;;1.22;98.43;97649.03;110826;1239;68520;-66
2023/01/12 02:45:36;;;;;;;29.10;19.10;;;;;;;1.21;99.71;97645.27;110793;1238;69254;-66
2023/01/12 02:48:34;;;;;;;31.10;19.70;;;;;;;1.23;99.82;97637.48;110844;1241;59659;-68
2023/01/12 02:51:23;;;;;;;30.00;20.70;;;;;;;1.26;100.00;97636.03;110233;1238;766154;-66
2023/01/12 02:54:04;;;;;;;30.60;19.60;;;;;;;1.28;100.00;97629.08;110831;1242;71349;-66
2023/01/12 02:56:40;;;;;;;32.00;21.40;;;;;;;1.30;100.00;97631.59;110811;1238;68598;-66
2023/01/12 02:59:22;;;;;;;31.80;20.40;;;;;;;1.32;100.00;97635.14;110791;1238;70038;-65
2023/01/12 03:01:56;;;;;;;30.80;20.80;;;;;;;1.33;100.00;97629.94;110824;1238;59716;-65
2023/01/12 03:04:28;;;;;;;27.30;19.40;;;;;;;1.33;100.00;97628.56;110822;1241;59666;-66
2023/01/12 03:07:00;;;;;;;30.70;21.80;;;;;;;1.35;100.00;97629.75;110794;1240;70978;-65
2023/01/12 03:09:32;;;;;;;31.30;20.50;;;;;;;1.36;99.36;97631.25;110848;1238;68710;-66
2023/01/12 03:12:11;;;;;;;32.20;20.90;;;;;;;1.36;98.47;97631.23;110837;1238;69311;-66
2023/01/12 03:14:47;;;;;;;29.50;21.00;;;;;;;1.36;99.89;97628.83;110821;1238;59732;-66
2023/01/12 03:17:29;;;;;;;29.00;18.30;;;;;;;1.36;100.00;97628.13;110848;1238;60123;-66
2023/01/12 03:20:28;;;;;;;27.30;18.00;;;;;;;1.38;100.00;97628.44;110712;1238;70589;-66
2023/01/12 03:23:03;;;;;;;27.10;18.50;;;;;;;1.38;100.00;97626.38;110763;1239;69206;-66
2023/01/12 03:25:36;;;;;;;24.90;17.50;;;;;;;1.38;100.00;97620.00;110821;1239;69981;-66
2023/01/12 03:28:08;;;;;;;25.00;15.90;;;;;;;1.40;100.00;97613.58;110785;1238;59786;-66
2023/01/12 03:30:42;;;;;;;30.30;20.80;;;;;;;1.44;100.00;97627.54;110782;1238;59634;-66
2023/01/12 03:33:13;;;;;;;36.30;22.10;;;;;;;1.41;99.69;97644.13;110808;1238;71341;-66
2023/01/12 03:35:49;;;;;;;;;;;;;;;1.35;98.76;97647.05;110845;1238;68297;-66
2023/01/12 03:38:35;;;;;;;31.90;19.30;;;;;;;1.29;98.99;97650.52;110645;1240;69850;-64
2023/01/12 03:41:35;;;;;;;25.60;17.80;;;;;;;1.27;99.27;97654.19;110566;1240;59795;-66
2023/01/12 03:44:11;;;;;;;25.80;17.40;;;;;;;1.25;99.43;97660.42;110582;1240;59627;-66
2023/01/12 03:46:50;;;;;;;24.30;16.80;;;;;;;1.25;99.26;97660.44;110572;1241;71053;-66
2023/01/12 03:50:13;;;;;;;24.10;16.70;;;;;;;1.27;99.33;97646.47;110487;1238;69827;-66
2023/01/12 03:52:45;;;;;;;22.20;15.40;;;;;;;1.28;100.00;97624.27;110309;1241;69875;-66
2023/01/12 03:55:18;;;;;;;25.30;17.00;;;;;;;1.27;100.00;97615.37;110546;1242;59692;-66
2023/01/12 03:57:49;;;;;;;28.70;19.00;;;;;;;1.25;100.00;97620.92;110634;1239;59660;-66
2023/01/12 04:00:20;;;;;;;26.10;17.70;;;;;;;1.25;100.00;97623.85;110545;1238;70723;-66
2023/01/12 04:03:00;;;;;;;27.30;19.10;;;;;;;1.28;100.00;97629.60;110542;1241;68583;-66
2023/01/12 04:05:30;;;;;;;;;;;;;;;1.28;100.00;97632.67;110570;1240;69870;-66
2023/01/12 04:08:01;;;;;;;28.90;18.80;;;;;;;1.28;100.00;97631.65;110595;1241;59997;-66
2023/01/12 04:10:30;;;;;;;28.20;18.50;;;;;;;1.26;99.79;97630.01;110599;1238;59740;-66
2023/01/12 04:13:01;;;;;;;22.60;16.40;;;;;;;1.24;100.00;97633.48;110572;1240;70495;-66
2023/01/12 04:15:36;;;;;;;23.30;16.90;;;;;;;1.25;100.00;97642.23;110585;1241;69237;-66
2023/01/12 04:18:06;;;;;;;28.40;18.00;;;;;;;1.27;100.00;97645.61;110606;1241;69751;-66
2023/01/12 04:20:37;;;;;;;24.80;17.00;;;;;;;1.29;100.00;97640.02;110517;1240;59704;-66
2023/01/12 04:23:06;;;;;;;31.40;20.50;;;;;;;1.34;100.00;97638.34;110622;1241;59653;-66
2023/01/12 04:25:36;;;;;;;26.10;18.60;;;;;;;1.36;100.00;97632.09;110565;1244;71150;-66
2023/01/12 04:28:06;;;;;;;24.50;17.60;;;;;;;1.39;100.00;97631.99;110609;1241;69870;-66
2023/01/12 04:30:36;;;;;;;21.50;15.40;;;;;;;1.41;100.00;97637.58;110522;1241;69093;-66
2023/01/12 04:33:06;;;;;;;20.10;14.20;;;;;;;1.42;100.00;97641.16;110636;1244;59737;-66
2023/01/12 04:35:36;;;;;;;20.70;15.40;;;;;;;1.43;100.00;97644.23;110622;1238;59721;-66
2023/01/12 04:38:08;;;;;;;;;;;;;;;1.44;99.97;97639.91;110771;1238;72242;-66
2023/01/12 04:40:38;;;;;;;23.30;15.10;;;;;;;1.45;100.00;97639.35;110799;1238;68778;-66
2023/01/12 04:43:10;;;;;;;22.30;14.50;;;;;;;1.45;100.00;97637.79;110807;1237;68782;-66
2023/01/12 04:45:42;;;;;;;23.90;17.20;;;;;;;1.47;100.00;97630.69;110779;1244;59734;-66
2023/01/12 04:48:13;;;;;;;25.50;16.20;;;;;;;1.48;100.00;97631.53;110751;1238;59727;-66
2023/01/12 04:50:43;;;;;;;28.00;17.30;;;;;;;1.47;100.00;97636.52;110778;1238;71496;-66
2023/01/12 04:53:12;;;;;;;30.20;19.80;;;;;;;1.47;100.00;97643.73;110743;1239;68512;-66
2023/01/12 04:55:42;;;;;;;35.30;22.70;;;;;;;1.46;99.97;97643.42;110674;1237;69189;-66
2023/01/12 04:58:12;;;;;;;24.90;18.70;;;;;;;1.43;99.53;97632.38;110736;1239;59732;-66
2023/01/12 05:00:41;;;;;;;33.40;22.50;;;;;;;1.41;100.00;97624.73;110774;1239;59749;-66
2023/01/12 05:03:12;;;;;;;31.70;21.70;;;;;;;1.38;100.00;97628.94;110721;1237;71331;-66
2023/01/12 05:05:41;;;;;;;26.30;17.60;;;;;;;1.36;100.00;97628.66;110744;1238;69190;-66
2023/01/12 05:11:00;;;;;;;23.40;16.60;;;;;;;1.36;100.00;97617.69;110775;1238;59671;-66
2023/01/12 05:13:31;;;;;;;39.60;24.70;;;;;;;1.37;100.00;97626.90;110781;1240;59683;-66
2023/01/12 05:16:15;;;;;;;38.20;25.00;;;;;;;1.37;100.00;97630.86;110750;1238;71360;-66
2023/01/12 05:18:45;;;;;;;28.70;20.10;;;;;;;1.31;100.00;97631.73;110751;1240;68381;-66
2023/01/12 05:21:16;;;;;;;26.00;17.80;;;;;;;1.26;100.00;97635.16;110734;1238;69140;-66
2023/01/12 05:23:46;;;;;;;23.30;15.20;;;;;;;1.24;100.00;97635.55;110712;1247;59691;-66
2023/01/12 05:26:15;;;;;;;29.70;18.10;;;;;;;1.26;100.00;97644.95;110731;1238;59651;-66
2023/01/12 05:28:49;;;;;;;27.30;17.40;;;;;;;1.27;100.00;97650.56;110713;1238;71682;-66
2023/01/12 05:31:18;;;;;;;29.40;19.70;;;;;;;1.28;100.00;97647.60;110693;1238;69778;-66
2023/01/12 05:33:47;;;;;;;31.70;19.80;;;;;;;1.28;100.00;97647.94;110712;1239;69997;-65
2023/01/12 05:36:17;;;;;;;31.60;20.20;;;;;;;1.25;100.00;97642.73;110638;1238;59700;-65
2023/01/12 05:38:46;;;;;;;24.20;17.50;;;;;;;1.22;100.00;97637.88;110788;1237;59682;-65
2023/01/12 05:41:15;;;;;;;35.10;21.50;;;;;;;1.23;100.00;97639.90;110750;1239;72029;-65
2023/01/12 05:43:49;;;;;;;31.70;20.30;;;;;;;1.23;100.00;97639.70;110781;1238;69786;-65
2023/01/12 05:46:38;;;;;;;30.70;22.70;;;;;;;1.23;100.00;97648.27;110694;1246;70222;-65
2023/01/12 05:49:09;;;;;;;34.50;22.60;;;;;;;1.21;100.00;97650.09;110718;1239;59668;-65
2023/01/12 05:51:39;;;;;;;29.90;20.20;;;;;;;1.14;100.00;97651.15;110789;1238;59676;-65
2023/01/12 05:54:08;;;;;;;30.00;19.90;;;;;;;1.06;100.00;97654.84;110638;1239;70444;-65
2023/01/12 05:56:37;;;;;;;36.90;23.10;;;;;;;1.05;100.00;97658.13;110769;1237;69072;-65
2023/01/12 05:59:08;;;;;;;40.40;24.70;;;;;;;1.06;100.00;97658.79;110774;1238;69577;-65
2023/01/12 06:01:39;;;;;;;41.10;25.00;;;;;;;1.08;100.00;97655.65;110748;1239;59663;-65
2023/01/12 06:04:09;;;;;;;44.10;27.80;;;;;;;1.10;100.00;97649.73;110784;1239;59678;-65
2023/01/12 06:06:38;;;;;;;39.00;25.30;;;;;;;1.11;100.00;97644.21;110703;1238;71966;-65
2023/01/12 06:09:07;;;;;;;46.00;29.40;;;;;;;1.14;100.00;97649.29;110759;1244;69744;-65
2023/01/12 06:14:24;;;;;;;41.10;26.30;;;;;;;1.20;100.00;97663.16;110722;1239;59718;-66
2023/01/12 06:16:53;;;;;;;39.10;25.50;;;;;;;1.20;100.00;97663.50;110755;1239;59731;-67
2023/01/12 06:19:22;;;;;;;33.50;24.20;;;;;;;1.19;100.00;97661.83;110731;1239;71374;-66
2023/01/12 06:21:53;;;;;;;39.60;25.50;;;;;;;1.21;100.00;97664.52;110758;1238;70046;-66
2023/01/12 06:24:23;;;;;;;43.80;28.60;;;;;;;1.24;100.00;97674.36;110747;1238;68390;-67
2023/01/12 06:26:53;;;;;;;45.50;29.70;;;;;;;1.26;100.00;97676.70;110779;1238;59724;-67
2023/01/12 06:29:22;;;;;;;50.70;32.50;;;;;;;1.27;100.00;97669.46;110761;1238;59665;-67
2023/01/12 06:31:51;;;;;;;46.20;30.80;;;;;;;1.29;100.00;97668.89;110784;1237;71947;-67
2023/01/12 06:34:20;;;;;;;45.20;30.20;;;;;;;1.32;100.00;97668.11;110800;1238;69790;-66
2023/01/12 06:36:49;;;;;;;43.90;27.80;;;;;;;1.36;100.00;97671.27;110751;1244;68475;-67
2023/01/12 06:39:19;;;;;;;48.80;30.80;;;;;;;1.40;100.00;97675.42;110747;1238;59651;-67
2023/01/12 06:44:35;;;;;;;43.10;29.90;;;;;;;1.48;100.00;97670.36;110761;1239;71856;-67
2023/01/12 06:47:04;;;;;;;46.50;29.50;;;;;;;1.51;100.00;97667.48;110772;1238;69208;-67
2023/01/12 06:49:33;;;;;;;44.80;29.90;;;;;;;1.57;100.00;97663.88;110766;1238;69861;-67
2023/01/12 06:52:02;;;;;;;43.40;29.00;;;;;;;1.61;100.00;97669.73;110769;1240;59710;-67
2023/01/12 06:54:31;;;;;;;45.70;30.90;;;;;;;1.65;100.00;97666.00;110770;1238;60090;-67
2023/01/12 06:56:59;;;;;;;46.70;30.90;;;;;;;1.69;100.00;97677.20;110757;1238;70874;-67
2023/01/12 06:59:28;;;;;;;37.60;27.80;;;;;;;1.72;100.00;97672.64;110767;1237;69182;-67
2023/01/12 07:01:57;;;;;;;39.70;26.30;;;;;;;1.77;100.00;97672.13;110714;1238;68767;-67
2023/01/12 07:04:26;;;;;;;46.20;30.10;;;;;;;1.82;100.00;97665.28;110757;1239;59674;-67
2023/01/12 07:06:55;;;;;;;40.60;28.70;;;;;;;1.85;100.00;97668.25;110790;1238;60132;-66
2023/01/12 07:09:24;;;;;;;33.70;22.60;;;;;;;1.89;100.00;97668.14;110786;1237;71545;-67
2023/01/12 07:11:53;;;;;;;41.90;26.10;;;;;;;1.93;100.00;97672.98;110640;1238;69100;-67
2023/01/12 07:14:23;;;;;;;38.20;26.90;;;;;;;1.98;100.00;97680.18;110728;1237;69068;-67
2023/01/12 07:16:52;;;;;;;39.50;25.90;;;;;;;2.02;100.00;97684.34;110703;1239;59989;-67
2023/01/12 07:19:21;;;;;;;37.20;25.40;;;;;;;2.04;100.00;97687.73;110615;1238;59708;-65
2023/01/12 07:21:50;;;;;;;35.00;24.50;;;;;;;2.09;100.00;97689.80;110668;1240;71927;-65
2023/01/12 07:24:19;;;;;;;40.50;27.40;;;;;;;2.15;100.00;97697.69;110763;1237;68274;-65
2023/01/12 07:26:49;;;;;;;46.80;28.20;;;;;;;2.21;100.00;97692.14;110768;1245;69840;-65
2023/01/12 07:29:17;;;;;;;39.70;28.00;;;;;;;2.27;100.00;97693.31;110695;1238;59677;-66
2023/01/12 07:31:47;;;;;;;38.70;27.60;;;;;;;2.32;100.00;97698.27;110775;1237;59695;-68
2023/01/12 07:34:17;;;;;;;37.20;25.70;;;;;;;2.38;100.00;97701.67;110801;1238;71942;-67
2023/01/12 07:36:50;;;;;;;34.80;24.40;;;;;;;2.44;100.00;97701.79;110769;1239;69291;-67
2023/01/12 07:39:19;;;;;;;37.00;24.60;;;;;;;2.49;100.00;97698.88;110785;1240;69846;-67
2023/01/12 07:44:36;;;;;;;37.20;24.40;;;;;;;2.59;100.00;97695.09;110779;1237;59752;-67
2023/01/12 07:47:05;;;;;;;36.10;26.90;;;;;;;2.62;100.00;97695.81;110722;1238;71931;-67
2023/01/12 07:49:34;;;;;;;47.10;32.40;;;;;;;2.63;100.00;97692.70;110804;1238;69166;-67
2023/01/12 07:52:03;;;;;;;40.20;28.00;;;;;;;2.61;100.00;97693.64;110769;1237;68846;-67
2023/01/12 07:54:34;;;;;;;50.80;34.10;;;;;;;2.58;100.00;97699.92;110755;1239;59681;-67
2023/01/12 07:57:06;;;;;;;59.30;38.50;;;;;;;2.57;100.00;97712.20;110765;1239;59743;-67
2023/01/12 07:59:35;;;;;;;51.90;36.30;;;;;;;2.54;100.00;97712.98;110756;1237;70524;-67
2023/01/12 08:02:05;;;;;;;67.90;48.10;;;;;;;2.54;100.00;97712.10;110754;1238;69599;-66
2023/01/12 08:04:34;;;;;;;;;;;;;;;2.51;100.00;97709.45;110766;1239;69849;-66
2023/01/12 08:07:03;;;;;;;66.60;42.10;;;;;;;2.51;100.00;97712.75;110722;1238;59731;-66
2023/01/12 08:09:32;;;;;;;54.30;36.50;;;;;;;2.52;100.00;97719.23;110753;1238;59686;-66
2023/01/12 08:12:00;;;;;;;53.50;36.90;;;;;;;2.53;100.00;97726.27;110757;1240;71774;-66
2023/01/12 08:14:38;;;;;;;54.30;36.40;;;;;;;2.54;100.00;97725.70;110755;1238;69844;-66
2023/01/12 08:17:12;;;;;;;57.60;36.10;;;;;;;2.59;100.00;97727.94;110766;1238;69188;-66
2023/01/12 08:20:01;;;;;;;56.40;38.00;;;;;;;2.65;100.00;97732.21;110750;1242;59776;-66
2023/01/12 08:22:35;;;;;;;64.30;41.50;;;;;;;2.70;100.00;97737.02;110801;1239;59696;-66
2023/01/12 08:25:29;;;;;;;65.50;38.70;;;;;;;2.74;99.99;97747.04;110719;1239;71336;-66
2023/01/12 08:28:03;;;;;;;62.40;40.90;;;;;;;2.79;99.92;97747.20;110759;1238;69617;-67
2023/01/12 08:30:32;;;;;;;69.70;44.90;;;;;;;2.81;99.66;97745.89;110736;1238;68403;-67
2023/01/12 08:33:01;;;;;;;63.60;42.10;;;;;;;2.84;99.46;97748.71;110767;1239;59738;-67
2023/01/12 08:35:33;;;;;;;58.80;39.20;;;;;;;2.86;99.34;97750.39;110774;1238;59666;-66
2023/01/12 08:38:02;;;;;;;60.90;41.50;;;;;;;2.83;99.87;97750.86;110782;1237;71275;-66
2023/01/12 08:44:00;;;;;;;52.10;34.90;;;;;;;2.75;100.00;97749.02;110759;1240;69247;-66
2023/01/12 08:46:07;;;;;;;46.10;32.90;;;;;;;2.72;100.00;97756.04;110747;1238;59658;-66
2023/01/12 08:48:37;;;;;;;49.90;34.50;;;;;;;2.73;100.00;97761.19;110768;1238;59745;-67
2023/01/12 08:51:07;;;;;;;48.90;35.00;;;;;;;2.74;100.00;97757.85;110648;1239;71144;-67
2023/01/12 08:53:36;;;;;;;;;;;;;;;2.77;100.00;97757.08;110687;1238;69551;-67
2023/01/12 08:56:06;;;;;;;45.10;30.60;;;;;;;2.78;100.00;97754.95;110686;1238;69283;-67
2023/01/12 08:58:35;;;;;;;46.80;31.70;;;;;;;2.83;100.00;97758.06;110761;1238;59754;-67
2023/01/12 09:01:12;;;;;;;43.80;29.50;;;;;;;2.88;100.00;97759.77;110738;1238;59686;-67
2023/01/12 09:03:43;;;;;;;42.60;29.10;;;;;;;2.93;100.00;97759.60;110786;1238;70940;-67
2023/01/12 09:06:21;;;;;;;40.30;28.60;;;;;;;3.00;100.00;97760.68;110654;1238;69297;-67
2023/01/12 09:08:55;;;;;;;33.20;24.20;;;;;;;3.06;100.00;97755.81;110676;1238;69838;-67
2023/01/12 09:11:24;;;;;;;38.80;27.70;;;;;;;3.14;100.00;97755.38;110683;1238;59663;-67
2023/01/12 09:13:54;;;;;;;39.10;28.10;;;;;;;3.17;100.00;97759.20;110717;1238;59672;-67
2023/01/12 09:16:25;;;;;;;38.30;25.40;;;;;;;3.14;99.98;97756.77;110739;1238;71205;-67
2023/01/12 09:18:55;;;;;;;35.00;25.30;;;;;;;3.11;99.73;97753.76;110717;1238;70022;-67
2023/01/12 09:21:26;;;;;;;41.00;27.60;;;;;;;3.12;99.75;97747.33;110647;1238;69363;-67
2023/01/12 09:23:55;;;;;;;40.60;27.60;;;;;;;3.18;100.00;97747.98;110735;1239;59692;-67
2023/01/12 09:26:30;;;;;;;38.80;27.10;;;;;;;3.24;99.99;97747.23;110687;1238;60085;-67
2023/01/12 09:29:01;;;;;;;40.40;27.90;;;;;;;3.26;99.85;97745.44;110703;1238;70643;-67
2023/01/12 09:31:31;;;;;;;;;;;;;;;3.25;99.79;97740.13;110694;1239;69687;-67
2023/01/12 09:34:00;;;;;;;34.50;24.80;;;;;;;3.25;99.74;97738.25;110748;1239;68777;-67
2023/01/12 09:36:34;;;;;;;38.30;25.60;;;;;;;3.24;100.00;97736.90;110706;1239;59745;-67
2023/01/12 09:39:04;;;;;;;30.70;21.90;;;;;;;3.16;100.00;97740.80;110557;1239;59659;-67
2023/01/12 09:47:30;;;;;;;34.60;24.90;;;;;;;3.37;100.00;97738.98;110620;1239;70033;-67
2023/01/12 09:50:13;;;;;;;29.80;22.30;;;;;;;3.45;100.00;97737.13;110613;1238;59735;-67
2023/01/12 09:52:48;;;;;;;33.70;24.60;;;;;;;3.50;100.00;97740.02;110619;1241;59669;-67
2023/01/12 09:55:20;;;;;;;35.30;25.70;;;;;;;3.56;100.00;97742.17;110534;1242;71291;-67
2023/01/12 09:58:15;;;;;;;35.70;24.80;;;;;;;3.60;100.00;97741.53;110545;1238;69544;-67
2023/01/12 10:00:55;;;;;;;33.00;22.70;;;;;;;3.68;100.00;97734.13;110507;1240;69288;-67
2023/01/12 10:03:37;;;;;;;32.70;24.10;;;;;;;3.69;100.00;97732.04;110411;1238;60103;-67
2023/01/12 10:06:13;;;;;;;33.50;22.70;;;;;;;3.69;100.00;97736.35;110404;1240;59657;-67
2023/01/12 10:08:54;;;;;;;34.90;23.50;;;;;;;3.67;99.99;97736.95;110476;1238;71952;-67
2023/01/12 10:11:49;;;;;;;34.80;23.70;;;;;;;3.66;99.77;97728.02;110552;1242;69046;-67
2023/01/12 10:14:56;;;;;;;34.00;24.40;;;;;;;3.63;99.69;97721.95;110584;1242;70069;-67
2023/01/12 10:17:45;;;;;;;35.90;24.20;;;;;;;3.51;100.00;97721.73;110595;1238;59741;-66
2023/01/12 10:20:34;;;;;;;35.50;24.90;;;;;;;3.45;100.00;97723.14;110356;1241;59630;-67
2023/01/12 10:23:06;;;;;;;34.20;24.50;;;;;;;3.42;100.00;97721.20;110354;1241;71330;-66
2023/01/12 10:25:39;;;;;;;33.20;24.30;;;;;;;3.34;100.00;97717.40;110534;1240;69820;-66
2023/01/12 10:28:14;;;;;;;31.30;23.20;;;;;;;3.31;100.00;97714.05;110541;1241;69117;-67
2023/01/12 10:30:44;;;;;;;33.20;22.90;;;;;;;3.31;100.00;97709.93;110469;1238;59689;-66
2023/01/12 10:33:23;;;;;;;33.50;24.90;;;;;;;3.33;100.00;97708.65;110624;1241;59639;-67
2023/01/12 10:36:08;;;;;;;39.20;27.10;;;;;;;3.30;100.00;97710.96;110609;1241;71940;-66
2023/01/12 10:38:59;;;;;;;37.80;27.50;;;;;;;3.34;100.00;97713.27;110564;1241;68706;-66
2023/01/12 10:41:30;;;;;;;40.80;29.10;;;;;;;3.33;100.00;97711.56;110551;1240;69686;-66
2023/01/12 10:43:59;;;;;;;37.10;28.20;;;;;;;3.31;100.00;97710.78;110417;1242;59716;-67
2023/01/12 10:46:32;;;;;;;40.20;28.20;;;;;;;3.31;100.00;97709.23;110342;1241;59675;-66
2023/01/12 10:49:18;;;;;;;42.20;29.40;;;;;;;3.31;100.00;97706.33;110449;1238;71691;-66
2023/01/12 10:51:50;;;;;;;36.50;27.90;;;;;;;3.28;100.00;97707.10;110436;1241;70279;-67
2023/01/12 10:54:21;;;;;;;41.00;30.20;;;;;;;3.27;100.00;97700.77;110558;1238;69214;-67
2023/01/12 10:57:11;;;;;;;39.80;29.60;;;;;;;3.27;100.00;97701.27;110614;1241;59756;-67
2023/01/12 10:59:48;;;;;;;37.30;28.50;;;;;;;3.20;100.00;97696.05;110683;1241;59671;-67
2023/01/12 11:02:17;;;;;;;37.30;28.20;;;;;;;3.17;100.00;97694.46;110672;1242;71806;-67
2023/01/12 11:04:50;;;;;;;39.80;29.90;;;;;;;3.19;100.00;97697.66;110573;1245;69710;-67
2023/01/12 11:07:30;;;;;;;38.80;27.90;;;;;;;3.19;100.00;97697.14;110389;1238;69786;-67
2023/01/12 11:10:34;;;;;;;40.40;29.50;;;;;;;3.17;100.00;97700.48;110435;1241;59712;-66
2023/01/12 11:13:05;;;;;;;37.30;27.80;;;;;;;3.14;100.00;97701.80;109925;1242;59694;-67
2023/01/12 11:15:37;;;;;;;35.70;24.30;;;;;;;3.14;100.00;97696.80;110681;1242;71680;-68
2023/01/12 11:18:31;;;;;;;38.40;26.80;;;;;;;3.16;100.00;97698.81;110636;1241;69796;-68
2023/01/12 11:21:14;;;;;;;35.50;24.60;;;;;;;3.18;100.00;97697.67;110603;1242;69750;-66
2023/01/12 11:24:04;;;;;;;33.50;21.90;;;;;;;3.17;100.00;97693.58;110645;1238;59766;-67
2023/01/12 11:26:49;;;;;;;36.20;25.40;;;;;;;3.20;100.00;97690.88;110524;1238;59689;-67
2023/01/12 11:29:30;;;;;;;36.10;26.70;;;;;;;3.22;100.00;97691.15;110423;1240;71201;-67
2023/01/12 11:32:07;;;;;;;35.90;26.10;;;;;;;3.26;100.00;97685.66;110454;1241;69814;-67
2023/01/12 11:34:50;;;;;;;35.30;25.10;;;;;;;3.29;100.00;97684.34;110471;1241;69791;-67
2023/01/12 11:37:19;;;;;;;36.60;26.40;;;;;;;3.30;100.00;97688.09;110437;1240;59737;-67
2023/01/12 11:39:52;;;;;;;34.40;25.80;;;;;;;3.33;100.00;97686.77;110484;1240;59681;-67
2023/01/12 11:45:18;;;;;;;35.90;26.60;;;;;;;3.38;100.00;97687.79;110411;1241;69830;-66
2023/01/12 11:48:26;;;;;;;39.00;27.70;;;;;;;3.43;100.00;97687.05;110542;1238;70036;-66
2023/01/12 11:50:57;;;;;;;39.20;26.90;;;;;;;3.47;100.00;97681.21;110470;1238;59766;-67
2023/01/12 11:53:25;;;;;;;39.30;28.60;;;;;;;3.48;100.00;97682.04;110653;1239;59763;-67
2023/01/12 11:56:08;;;;;;;41.20;27.90;;;;;;;3.45;100.00;97677.66;110635;1238;71992;-67
2023/01/12 11:58:54;;;;;;;34.80;26.00;;;;;;;3.48;100.00;97674.95;110644;1240;67466;-67
2023/01/12 12:01:44;;;;;;;36.50;25.40;;;;;;;3.49;100.00;97677.17;110636;1241;69067;-67
2023/01/12 12:04:28;;;;;;;;;;;;;;;3.48;100.00;97680.33;110641;1240;59756;-67
2023/01/12 12:07:36;;;;;;;36.80;25.80;;;;;;;3.46;100.00;97681.41;110584;1241;59677;-66
2023/01/12 12:10:14;;;;;;;39.80;28.10;;;;;;;3.47;100.00;97682.76;110064;1240;70042;-68
2023/01/12 12:13:19;;;;;;;39.90;25.60;;;;;;;3.49;100.00;97683.20;110555;1238;68307;-67
2023/01/12 12:15:50;;;;;;;38.50;26.00;;;;;;;3.50;100.00;97681.62;110630;1238;68915;-66
2023/01/12 12:18:21;;;;;;;46.10;30.00;;;;;;;3.51;100.00;97679.32;110587;1238;59751;-66
2023/01/12 12:20:59;;;;;;;39.90;29.50;;;;;;;3.55;100.00;97678.29;110625;1242;60047;-66